Nearby METAR Reports

 

KISP - Islip, New York, USA
Distance from station: SW 4mi, 6km
Updated: Mon, 06/18/2018 12:56 pm EDT
Mostly cloudy
Mostly cloudy
 Wind from SSW
Wind: SSW 17 mph , 28 km/h
Temperature: 81°F , 27°C
Heat Index: 83°F , 28°C
Dew Point: 66°F , 19°C
Humidity: 62%
Barometer: 29.98 inHg , 1015.2 hPa
Clouds: Mostly cloudy
Visibility: 10 miles , 16 km
Cloud details: Few Clouds 4500 ft
Mostly cloudy 25000 ft
2018/06/18 16:56 KISP 181656Z 21015KT 10SM FEW045 BKN250 27/19 A2998 RMK AO2 SLP149 T02720194
KHWV - Shirley, New York, USA
Distance from station: E 10mi, 16km
Updated: Mon, 06/18/2018 12:56 pm EDT
Clear
Clear
 Wind from SSW
Wind: SSW 17 mph , 28 km/h, Gust: 24 mph , 39 km/h
Temperature: 79°F , 26°C
Dew Point: 68°F , 20°C
Humidity: 70%
Barometer: 29.98 inHg , 1015.2 hPa
Clouds: Clear
Visibility: 10 miles , 16 km
2018/06/18 16:56 KHWV 181656Z AUTO 20015G21KT 10SM CLR 26/20 A2998 RMK AO2 SLP152 T02610200 TSNO
 
KFRG - Farmingdale, New York, USA
Distance from station: WSW 20mi, 33km
Updated: Mon, 06/18/2018 12:53 pm EDT
Clear
Clear
 Wind from SW
Wind: SW 18 mph , 30 km/h
Temperature: 79°F , 26°C
Dew Point: 66°F , 19°C
Humidity: 65%
Barometer: 29.98 inHg , 1015.2 hPa
Clouds: Clear
Visibility: 10 miles , 16 km
2018/06/18 16:53 KFRG 181653Z 22016KT 10SM CLR 26/19 A2998 RMK AO2 SLP150 T02610194
KBDR - Bridgeport, Connecticut, USA
Distance from station: N 23mi, 37km
Updated: Mon, 06/18/2018 12:52 pm EDT
Clear
Clear
 Wind from SSW
Wind: SSW 16 mph , 26 km/h
Temperature: 84°F , 29°C
Heat Index: 87°F , 31°C
Dew Point: 68°F , 20°C
Humidity: 58%
Barometer: 29.94 inHg , 1013.9 hPa
Clouds: Clear
Visibility: 10 miles , 16 km
2018/06/18 16:52 KBDR 181652Z 20014KT 10SM CLR 29/20 A2994 RMK AO2 SLP139 T02890200
 
KFOK - Westhampton Beac, New York, USA
Distance from station: E 23mi, 37km
Updated: Mon, 06/18/2018 12:53 pm EDT
Clear
Clear
 Wind from SW
Wind: SW 14 mph , 22 km/h, Gust: 21 mph , 33 km/h
Temperature: 77°F , 25°C
Dew Point: 66°F , 19°C
Humidity: 69%
Barometer: 29.99 inHg , 1015.6 hPa
Clouds: Clear
Visibility: 10 miles , 16 km
2018/06/18 16:53 KFOK 181653Z 22012G18KT 10SM CLR 25/19 A2999 RMK AO2 SLP156 T02500189
KHVN - New Haven/Tweed, Connecticut, USA
Distance from station: NNE 31mi, 50km
Updated: Mon, 06/18/2018 12:53 pm EDT
Clear
Clear
 Wind from SSW
Wind: SSW 10 mph , 17 km/h
Temperature: 81°F , 27°C
Heat Index: 85°F , 29°C
Dew Point: 70°F , 21°C
Humidity: 70%
Barometer: 29.95 inHg , 1014.2 hPa
Clouds: Clear
Visibility: 10 miles , 16 km
2018/06/18 16:53 KHVN 181653Z 21009KT 10SM CLR 27/21 A2995 RMK AO2 SLP141 T02670206
 
KHPN - White Plains, New York, USA
Distance from station: WNW 37mi, 60km
Updated: Mon, 06/18/2018 12:56 pm EDT
Clear
Clear
 Wind from SW
Wind: SW 8 mph , 13 km/h, Gust: 20 mph , 31 km/h
Temperature: 90°F , 32°C
Heat Index: 93°F , 34°C
Dew Point: 66°F , 19°C
Humidity: 46%
Barometer: 29.95 inHg , 1014.2 hPa
Clouds: Clear
Visibility: 10 miles , 16 km
2018/06/18 16:56 KHPN 181656Z 22007G17KT 170V250 10SM CLR 32/19 A2995 RMK AO2 SLP133 T03170194
KJFK - Nyc/Jfk Arpt, New York, USA
Distance from station: WSW 40mi, 64km
Updated: Mon, 06/18/2018 12:51 pm EDT
Mostly cloudy
Mostly cloudy
 Wind from S
Wind: S 18 mph , 30 km/h
Temperature: 79°F , 26°C
Dew Point: 70°F , 21°C
Humidity: 74%
Barometer: 29.98 inHg , 1015.2 hPa
Clouds: Mostly cloudy
Visibility: 10 miles , 16 km
Cloud details: Few Clouds 5000 ft
Mostly cloudy 25000 ft
2018/06/18 16:51 KJFK 181651Z 19016KT 10SM FEW050 BKN250 26/21 A2998 RMK AO2 SLP152 T02560206
 
KDXR - Danbury, Connecticut, USA
Distance from station: NNW 42mi, 68km
Updated: Mon, 06/18/2018 12:53 pm EDT
Clear
Clear
 Wind from SW
Wind: SW 15 mph , 24 km/h, Gust: 21 mph , 33 km/h
Temperature: 88°F , 31°C
Heat Index: 92°F , 33°C
Dew Point: 68°F , 20°C
Humidity: 52%
Barometer: 29.95 inHg , 1014.2 hPa
Clouds: Clear
Visibility: 10 miles , 16 km
2018/06/18 16:53 KDXR 181653Z 22013G18KT 10SM CLR 31/20 A2995
KHTO - East Hampton, New York, USA
Distance from station: E 43mi, 69km
Updated: Mon, 06/18/2018 12:55 pm EDT
Clear
Clear
 Wind from SW
Wind: SW 15 mph , 24 km/h, Gust: 24 mph , 39 km/h
Temperature: 75°F , 24°C
Dew Point: 66°F , 19°C
Humidity: 74%
Barometer: 29.97 inHg , 1014.9 hPa
Clouds: Clear
Visibility: 10 miles , 16 km
2018/06/18 16:55 KHTO 181655Z AUTO 23013G21KT 10SM CLR 24/19 A2997 RMK AO2 T02440187
 
KOXC - Oxford/Waterbury, Connecticut, USA
Distance from station: N 43mi, 70km
Updated: Mon, 06/18/2018 12:51 pm EDT
Few Clouds
Few Clouds
 Wind from SW
Wind: SW 10 mph , 17 km/h
Temperature: 88°F , 31°C
Heat Index: 93°F , 34°C
Dew Point: 70°F , 21°C
Humidity: 55%
Barometer: 29.96 inHg , 1014.6 hPa
Clouds: Few Clouds
Visibility: 10 miles , 16 km
Cloud details: Few Clouds 6000 ft
2018/06/18 16:51 KOXC 181651Z 23009KT 10SM FEW060 31/21 A2996 RMK AO2 SLP150 T03060206
KLGA - Nyc/La Guardia, New York, USA
Distance from station: W 44mi, 70km
Updated: Mon, 06/18/2018 12:51 pm EDT
Mostly cloudy
Mostly cloudy
 Wind from SSE
Wind: SSE 17 mph , 28 km/h
Temperature: 90°F , 32°C
Heat Index: 94°F , 34°C
Dew Point: 68°F , 20°C
Humidity: 49%
Barometer: 29.94 inHg , 1013.9 hPa
Clouds: Mostly cloudy
Visibility: 10 miles , 16 km
Cloud details: Few Clouds 4500 ft
Mostly cloudy 25000 ft
2018/06/18 16:51 KLGA 181651Z 16015KT 10SM FEW045 BKN250 32/20 A2994 RMK AO2 SLP138 T03170200
 
KSNC - Chester, Connecticut, USA
Distance from station: NE 47mi, 76km
Updated: Mon, 06/18/2018 12:55 pm EDT
Few Clouds
Few Clouds
 Wind from SSW
Wind: SSW 16 mph , 26 km/h
Temperature: 84°F , 29°C
Heat Index: 88°F , 31°C
Dew Point: 70°F , 21°C
Humidity: 62%
Barometer: 29.96 inHg , 1014.6 hPa
Clouds: Few Clouds
Visibility: 9 miles , 14 km
Cloud details: Few Clouds 3800 ft
Few Clouds 7000 ft
Few Clouds 9000 ft
2018/06/18 16:55 KSNC 181655Z AUTO 21014KT 9SM FEW038 FEW070 FEW090 29/21 A2996 RMK AO2
KMMK - Meriden, Connecticut, USA
Distance from station: NNE 48mi, 77km
Updated: Mon, 06/18/2018 12:53 pm EDT
Clear
Clear
 Wind from S
Wind: S 14 mph , 22 km/h, Gust: 22 mph , 35 km/h
Temperature: 88°F , 31°C
Heat Index: 93°F , 34°C
Dew Point: 70°F , 21°C
Humidity: 55%
Barometer: 29.92 inHg , 1013.2 hPa
Clouds: Clear
Visibility: 10 miles , 16 km
2018/06/18 16:53 KMMK 181653Z AUTO 19012G19KT 10SM CLR 31/21 A2992 RMK AO2 SLP129 T03110206
 
KNYC - Nyc/Central Park, New York, USA
Distance from station: W 48mi, 77km
Updated: Mon, 06/18/2018 12:51 pm EDT
Clear
Clear
 Wind from varies
Wind: varies 6 mph , 9 km/h
Temperature: 90°F , 32°C
Heat Index: 96°F , 36°C
Dew Point: 70°F , 21°C
Humidity: 52%
Barometer: 29.97 inHg , 1014.9 hPa
Clouds: Clear
Visibility: 8 miles , 13 km
2018/06/18 16:51 KNYC 181651Z AUTO VRB05KT 8SM CLR 32/21 A2997 RMK AO2 SLP140 T03220211 $